Time;durP1;ratioP1;P1;durP2;ratioP2;P2;SDS_P1;SDS_P2;PMS_P1;PMS_P2;Temp;Humidity;BMP_temperature;BMP_pressure;BME280_temperature;BME280_humidity;BME280_pressure;Samples;Min_cycle;Max_cycle;Signal;HPM_P1;HPM_P2
2023/01/16 00:01:38;;;;;;;1.53;0.90;;;;;;;5.28;57.55;94652.13;5071875;28;20205;-86
2023/01/16 00:04:05;;;;;;;1.13;0.90;;;;;;;5.17;57.62;94650.75;5071425;28;20224;-86
2023/01/16 00:06:31;;;;;;;0.90;0.83;;;;;;;5.05;57.75;94648.72;5071282;28;20193;-85
2023/01/16 00:08:58;;;;;;;1.50;0.80;;;;;;;5.06;58.04;94647.75;5070885;28;20611;-85
2023/01/16 00:11:24;;;;;;;1.30;1.00;;;;;;;5.08;57.74;94648.41;5071972;28;20204;-84
2023/01/16 00:13:52;;;;;;;1.53;0.70;;;;;;;5.07;58.04;94642.50;5071831;28;20193;-85
2023/01/16 00:16:21;;;;;;;1.77;1.00;;;;;;;5.07;58.33;94639.16;5071686;28;20236;-85
2023/01/16 00:18:47;;;;;;;1.53;0.90;;;;;;;5.13;58.36;94633.41;5073408;28;20307;-85
2023/01/16 00:21:13;;;;;;;1.83;1.10;;;;;;;5.16;58.39;94626.22;5075229;28;20197;-86
2023/01/16 00:23:40;;;;;;;1.13;1.00;;;;;;;5.15;57.96;94627.16;5074845;28;20601;-85
2023/01/16 00:26:08;;;;;;;2.10;1.13;;;;;;;5.17;58.23;94625.25;5074703;28;20201;-85
2023/01/16 00:28:36;;;;;;;1.60;0.90;;;;;;;5.15;58.46;94618.72;5074908;28;20272;-85
2023/01/16 00:31:05;;;;;;;0.80;0.80;;;;;;;5.12;58.54;94624.94;5074930;28;20258;-84
2023/01/16 00:33:31;;;;;;;2.17;1.03;;;;;;;5.14;58.50;94623.03;5074956;28;20212;-84
2023/01/16 00:35:58;;;;;;;1.37;0.80;;;;;;;5.14;58.69;94612.03;5076005;28;20224;-85
2023/01/16 00:38:24;;;;;;;1.43;0.93;;;;;;;5.16;58.60;94605.00;5075707;28;20217;-85
2023/01/16 00:40:51;;;;;;;0.90;0.80;;;;;;;5.17;58.50;94598.94;5075581;28;20223;-85
2023/01/16 00:43:17;;;;;;;1.40;0.80;;;;;;;5.12;58.73;94604.53;5075474;28;20243;-85
2023/01/16 00:45:43;;;;;;;1.43;0.97;;;;;;;5.06;58.84;94589.88;5075212;28;20304;-85
2023/01/16 00:48:11;;;;;;;1.00;0.90;;;;;;;5.00;59.22;94589.78;5074898;28;20219;-85
2023/01/16 00:50:38;;;;;;;1.00;0.90;;;;;;;5.00;59.30;94587.22;5074557;28;20185;-86
2023/01/16 00:53:04;;;;;;;1.10;0.90;;;;;;;5.06;58.93;94595.00;5074842;28;20719;-84
2023/01/16 00:55:33;;;;;;;1.20;0.83;;;;;;;5.12;59.11;94581.59;5073720;28;20197;-84
2023/01/16 00:57:59;;;;;;;0.67;0.67;;;;;;;5.18;58.57;94575.81;5074874;28;20350;-86
2023/01/16 01:00:25;;;;;;;1.03;0.77;;;;;;;5.12;58.34;94573.94;5074535;28;20224;-85
2023/01/16 01:02:52;;;;;;;0.70;0.70;;;;;;;5.13;58.66;94569.63;5073731;28;20231;-85
2023/01/16 01:05:20;;;;;;;0.77;0.70;;;;;;;5.13;58.25;94561.97;5073863;28;20196;-85
2023/01/16 01:07:47;;;;;;;1.10;0.90;;;;;;;5.16;58.63;94567.53;5075557;28;20280;-84
2023/01/16 01:10:13;;;;;;;1.10;0.80;;;;;;;5.06;58.45;94555.94;5075899;28;20200;-83
2023/01/16 01:12:40;;;;;;;1.03;0.77;;;;;;;5.04;59.03;94552.75;5075222;28;20243;-83
2023/01/16 01:15:07;;;;;;;1.07;0.60;;;;;;;5.04;59.11;94553.56;5075175;28;20204;-83
2023/01/16 01:17:34;;;;;;;1.23;1.03;;;;;;;5.04;59.24;94545.91;5058463;28;20216;-84
2023/01/16 01:20:00;;;;;;;2.43;0.87;;;;;;;5.03;59.11;94539.22;5075425;28;20224;-83
2023/01/16 01:22:28;;;;;;;0.80;0.80;;;;;;;4.95;59.63;94539.28;5075250;28;20610;-83
2023/01/16 01:24:54;;;;;;;0.90;0.70;;;;;;;4.95;59.46;94541.81;5075535;28;20208;-83
2023/01/16 01:27:21;;;;;;;1.17;0.87;;;;;;;4.96;59.23;94545.97;5074715;28;20216;-84
2023/01/16 01:29:47;;;;;;;1.07;0.90;;;;;;;4.91;59.36;94532.91;5074676;28;20208;-84
2023/01/16 01:32:13;;;;;;;0.90;0.80;;;;;;;4.90;59.75;94533.06;5075524;28;20201;-83
2023/01/16 01:34:40;;;;;;;0.90;0.80;;;;;;;4.88;59.39;94519.69;5074742;28;20645;-84
2023/01/16 01:37:08;;;;;;;1.43;0.90;;;;;;;4.90;59.55;94521.13;5073890;28;20205;-83
2023/01/16 01:39:35;;;;;;;1.93;1.03;;;;;;;5.00;59.23;94526.03;5074966;28;20634;-84
2023/01/16 01:44:54;;;;;;;0.97;0.70;;;;;;;5.05;59.45;94510.97;5075175;28;20679;-83
2023/01/16 01:47:24;;;;;;;1.10;1.00;;;;;;;5.08;59.30;94510.66;5074255;28;20200;-84
2023/01/16 01:49:52;;;;;;;2.20;1.13;;;;;;;5.09;59.60;94502.84;5074410;28;20605;-84
2023/01/16 01:52:21;;;;;;;0.90;0.77;;;;;;;5.14;59.03;94499.78;5074897;28;20201;-83
2023/01/16 01:54:55;;;;;;;1.17;0.80;;;;;;;5.20;59.04;94492.22;5074583;28;20204;-83
2023/01/16 01:57:26;;;;;;;0.70;0.70;;;;;;;5.18;59.13;94488.28;5073659;28;20730;-83
2023/01/16 01:59:58;;;;;;;0.97;0.73;;;;;;;5.22;58.94;94484.41;5075466;28;20224;-83
2023/01/16 02:02:31;;;;;;;1.17;0.90;;;;;;;5.20;58.81;94479.47;5073744;28;20227;-84
2023/01/16 02:04:58;;;;;;;0.97;0.93;;;;;;;5.22;59.19;94474.19;5074823;28;20201;-84
2023/01/16 02:07:26;;;;;;;1.47;0.80;;;;;;;5.22;58.89;94458.88;5074285;28;20239;-84
2023/01/16 02:10:01;;;;;;;1.10;1.00;;;;;;;5.15;58.68;94455.44;5074745;28;20203;-83
2023/01/16 02:12:28;;;;;;;1.43;0.80;;;;;;;5.10;58.88;94450.84;5074636;28;20201;-83
2023/01/16 02:14:57;;;;;;;0.93;0.77;;;;;;;5.12;59.03;94445.56;5074837;28;20678;-84
2023/01/16 02:20:17;;;;;;;1.93;0.80;;;;;;;5.03;59.31;94437.19;5074821;28;20224;-84
2023/01/16 02:23:02;;;;;;;0.97;0.70;;;;;;;5.01;59.54;94430.66;5056372;28;20627;-84
2023/01/16 02:26:09;;;;;;;0.70;0.70;;;;;;;5.01;59.18;94428.09;5074100;28;20208;-82
2023/01/16 02:29:07;;;;;;;0.80;0.70;;;;;;;4.91;59.60;94407.16;5074016;28;20220;-83
2023/01/16 02:31:41;;;;;;;0.73;0.70;;;;;;;4.92;59.69;94408.75;5041021;28;20215;-84
2023/01/16 02:34:27;;;;;;;1.60;0.80;;;;;;;4.93;59.57;94417.97;5072891;28;20290;-83
2023/01/16 02:37:05;;;;;;;1.57;0.70;;;;;;;4.99;59.51;94407.09;5073918;28;20197;-83
2023/01/16 02:39:38;;;;;;;0.70;0.60;;;;;;;4.92;59.30;94407.00;5053534;28;20252;-83
2023/01/16 02:42:12;;;;;;;0.70;0.70;;;;;;;4.96;59.01;94395.50;5067340;28;20201;-84
2023/01/16 02:44:48;;;;;;;2.00;0.77;;;;;;;5.02;59.18;94391.44;5073680;28;20606;-84
2023/01/16 02:47:23;;;;;;;1.47;0.80;;;;;;;5.03;58.91;94380.28;5073254;28;20201;-83
2023/01/16 02:49:58;;;;;;;0.93;0.70;;;;;;;4.98;59.00;94382.56;5073131;28;20257;-84
2023/01/16 02:52:32;;;;;;;0.83;0.73;;;;;;;4.92;59.49;94378.16;5073489;28;20714;-84
2023/01/16 02:55:04;;;;;;;1.27;0.93;;;;;;;4.98;59.05;94370.59;5073199;28;20262;-83
2023/01/16 02:57:36;;;;;;;0.87;0.70;;;;;;;4.98;59.62;94367.25;5072490;28;20220;-83
2023/01/16 03:00:05;;;;;;;0.50;0.50;;;;;;;5.01;59.41;94367.69;5073752;28;20220;-84
2023/01/16 03:02:33;;;;;;;0.60;0.60;;;;;;;4.91;59.31;94359.50;5073217;28;20212;-84
2023/01/16 03:04:59;;;;;;;1.03;0.80;;;;;;;4.98;59.46;94354.50;5072465;28;20201;-83
2023/01/16 03:07:59;;;;;;;0.63;0.63;;;;;;;4.91;59.21;94356.94;5072611;28;20220;-82
2023/01/16 03:10:53;;;;;;;0.70;0.60;;;;;;;4.99;59.54;94351.78;5028930;28;20208;-83
2023/01/16 03:13:35;;;;;;;1.73;0.70;;;;;;;5.01;59.30;94346.50;5073372;28;20266;-84
2023/01/16 03:16:11;;;;;;;2.30;0.70;;;;;;;5.01;58.65;94336.28;5072242;28;20199;-84
2023/01/16 03:18:49;;;;;;;0.70;0.70;;;;;;;5.01;58.73;94324.34;5073173;28;20225;-83
2023/01/16 03:21:26;;;;;;;0.80;0.80;;;;;;;4.94;58.13;94328.56;5073000;28;20278;-83
2023/01/16 03:23:54;;;;;;;0.60;0.60;;;;;;;4.78;58.63;94321.84;5073395;28;20672;-83
2023/01/16 03:26:28;;;;;;;2.83;0.70;;;;;;;4.78;58.57;94315.94;5072677;28;20660;-83
2023/01/16 03:29:03;;;;;;;0.97;0.70;;;;;;;4.72;59.13;94306.44;5073161;28;20290;-84
2023/01/16 03:31:38;;;;;;;0.60;0.60;;;;;;;4.75;58.97;94303.53;5072953;28;20205;-83
2023/01/16 03:34:14;;;;;;;0.70;0.70;;;;;;;4.77;59.10;94296.53;5073445;28;20196;-83
2023/01/16 03:36:47;;;;;;;1.10;0.77;;;;;;;4.76;59.00;94295.72;5073410;28;20192;-84
2023/01/16 03:39:17;;;;;;;0.70;0.70;;;;;;;4.76;59.35;94282.19;5072692;28;20223;-83
2023/01/16 03:41:47;;;;;;;0.83;0.80;;;;;;;4.79;59.55;94276.75;5073276;28;20289;-84
2023/01/16 03:44:24;;;;;;;1.70;0.90;;;;;;;4.71;59.33;94269.94;5074374;28;20222;-83
2023/01/16 03:46:51;;;;;;;0.60;0.60;;;;;;;4.78;59.77;94270.06;5073646;28;20683;-84
2023/01/16 03:49:21;;;;;;;0.77;0.77;;;;;;;4.75;59.46;94263.53;5073379;28;20233;-84
2023/01/16 03:51:52;;;;;;;0.80;0.80;;;;;;;4.75;60.02;94257.66;5073270;28;20338;-84
2023/01/16 03:54:31;;;;;;;1.10;0.80;;;;;;;4.72;59.81;94250.34;5076960;28;20197;-84
2023/01/16 03:57:05;;;;;;;1.30;0.80;;;;;;;4.59;60.77;94245.84;5075880;28;20567;-84
2023/01/16 03:59:31;;;;;;;1.87;0.77;;;;;;;4.57;60.96;94239.34;5077431;28;20212;-83
2023/01/16 04:02:03;;;;;;;0.70;0.70;;;;;;;4.57;61.02;94237.59;5076757;28;20197;-83
2023/01/16 04:04:37;;;;;;;0.60;0.60;;;;;;;4.55;61.20;94231.06;5075946;28;20611;-84
2023/01/16 04:07:09;;;;;;;0.80;0.80;;;;;;;4.55;61.04;94231.06;5076017;28;20516;-84
2023/01/16 04:09:41;;;;;;;0.80;0.80;;;;;;;4.59;61.06;94217.81;5075920;28;20204;-83
2023/01/16 04:12:08;;;;;;;0.80;0.80;;;;;;;4.65;60.56;94217.09;5076693;28;20196;-83
2023/01/16 04:14:36;;;;;;;1.10;1.00;;;;;;;4.64;61.08;94217.28;5076968;28;20664;-82
2023/01/16 04:17:03;;;;;;;1.33;0.97;;;;;;;4.65;60.45;94212.00;5076078;28;20223;-83
2023/01/16 04:19:33;;;;;;;0.90;0.90;;;;;;;4.66;60.46;94205.16;5075880;28;20304;-84
2023/01/16 04:22:05;;;;;;;1.70;1.00;;;;;;;4.62;60.88;94199.59;5076281;28;20251;-83
2023/01/16 04:24:31;;;;;;;1.03;0.93;;;;;;;4.53;60.70;94192.22;5076143;28;20208;-83
2023/01/16 04:26:58;;;;;;;1.57;1.00;;;;;;;4.50;61.04;94172.97;5075737;28;20255;-84
2023/01/16 04:29:25;;;;;;;1.00;0.90;;;;;;;4.38;61.56;94170.06;5076159;28;20221;-83
2023/01/16 04:31:52;;;;;;;1.13;1.03;;;;;;;4.39;61.65;94158.13;5076209;28;20200;-84
2023/01/16 04:34:18;;;;;;;0.80;0.80;;;;;;;4.40;61.81;94154.59;5074562;28;20208;-84
2023/01/16 04:36:46;;;;;;;1.40;1.10;;;;;;;4.36;61.82;94141.41;5076236;28;20196;-83
2023/01/16 04:39:12;;;;;;;1.47;1.03;;;;;;;4.34;62.36;94134.91;5076092;28;20224;-83
2023/01/16 04:41:40;;;;;;;1.27;1.10;;;;;;;4.36;62.29;94127.88;5076246;28;20328;-83
2023/01/16 04:44:08;;;;;;;1.60;1.10;;;;;;;4.32;62.00;94124.91;5076611;28;20200;-84
2023/01/16 04:46:36;;;;;;;0.80;0.80;;;;;;;4.20;62.56;94111.00;5076546;28;20207;-83
2023/01/16 04:49:03;;;;;;;2.60;1.00;;;;;;;4.19;62.89;94109.44;5077109;28;20225;-84
2023/01/16 04:51:30;;;;;;;1.43;1.10;;;;;;;4.01;63.73;94104.66;5077319;28;20204;-83
2023/01/16 04:53:58;;;;;;;1.03;1.00;;;;;;;4.03;63.79;94099.41;5076793;28;20196;-83
2023/01/16 04:56:24;;;;;;;2.23;0.90;;;;;;;4.01;63.81;94097.03;5077707;28;20465;-82
2023/01/16 04:58:52;;;;;;;1.10;0.93;;;;;;;4.01;63.59;94093.69;5077144;28;20229;-83
2023/01/16 05:01:19;;;;;;;0.90;0.90;;;;;;;3.96;64.24;94094.19;5076122;28;20212;-82
2023/01/16 05:03:46;;;;;;;0.90;0.90;;;;;;;3.98;64.31;94079.53;5071615;28;20204;-84
2023/01/16 05:06:12;;;;;;;1.10;0.90;;;;;;;3.91;64.15;94082.94;5075207;28;20189;-83
2023/01/16 05:08:39;;;;;;;1.70;1.03;;;;;;;3.93;64.38;94081.81;5076794;28;20220;-84
2023/01/16 05:11:06;;;;;;;1.10;1.00;;;;;;;4.01;63.99;94074.09;5067073;28;20197;-82
2023/01/16 05:13:33;;;;;;;1.17;1.03;;;;;;;4.07;64.11;94070.06;5064708;28;20688;-83
2023/01/16 05:15:59;;;;;;;3.17;1.10;;;;;;;4.07;64.15;94059.88;5077552;28;20211;-82
2023/01/16 05:18:26;;;;;;;1.30;1.20;;;;;;;4.08;64.23;94057.16;5076075;28;20224;-83
2023/01/16 05:20:52;;;;;;;1.57;1.10;;;;;;;4.02;64.03;94055.31;5075048;28;20217;-83
2023/01/16 05:23:19;;;;;;;1.10;1.00;;;;;;;3.97;64.55;94049.16;5075307;28;20209;-83
2023/01/16 05:25:45;;;;;;;1.30;1.07;;;;;;;3.94;64.63;94041.88;5076895;28;20201;-83
2023/01/16 05:28:13;;;;;;;1.77;1.00;;;;;;;3.94;64.55;94039.31;5075994;28;20217;-82
2023/01/16 05:30:40;;;;;;;1.40;1.10;;;;;;;3.98;64.68;94038.81;5076462;28;20196;-82
2023/01/16 05:33:06;;;;;;;1.00;0.90;;;;;;;3.98;64.65;94033.72;5076801;28;20216;-82
2023/01/16 05:35:33;;;;;;;1.20;1.00;;;;;;;3.93;65.14;94033.44;5076017;28;20246;-83
2023/01/16 05:37:59;;;;;;;1.03;1.00;;;;;;;3.90;64.97;94022.81;5075303;28;20251;-82
2023/01/16 05:40:25;;;;;;;1.83;1.00;;;;;;;3.85;65.17;94020.00;5075395;28;20220;-82
2023/01/16 05:42:52;;;;;;;0.83;0.83;;;;;;;3.83;65.31;94012.53;5075751;28;20208;-82
2023/01/16 05:45:20;;;;;;;1.30;1.10;;;;;;;3.82;65.96;94010.97;5074951;28;20227;-83
2023/01/16 05:47:47;;;;;;;1.57;1.20;;;;;;;3.84;65.96;94001.41;5075112;28;20221;-83
2023/01/16 05:50:13;;;;;;;0.97;0.97;;;;;;;3.86;65.60;93996.91;5075921;28;20201;-83
2023/01/16 05:52:39;;;;;;;1.60;1.10;;;;;;;3.87;65.61;93992.59;5072538;28;20200;-82
2023/01/16 05:55:07;;;;;;;1.40;0.90;;;;;;;3.92;65.55;93990.31;5072520;28;20207;-81
2023/01/16 05:57:33;;;;;;;1.00;0.90;;;;;;;3.97;65.25;93985.50;5074496;28;20226;-82
2023/01/16 06:00:00;;;;;;;1.50;1.20;;;;;;;3.99;65.04;93981.81;5074916;28;20618;-82
2023/01/16 06:02:27;;;;;;;1.43;1.20;;;;;;;4.03;65.09;93972.09;5075874;28;20642;-82
2023/01/16 06:04:54;;;;;;;2.20;1.17;;;;;;;4.02;64.82;93966.19;5076521;28;20246;-83
2023/01/16 06:07:20;;;;;;;1.70;1.20;;;;;;;4.02;64.75;93962.88;5075931;28;20201;-82
2023/01/16 06:09:46;;;;;;;1.10;1.00;;;;;;;3.91;64.64;93953.09;5075403;28;20246;-83
2023/01/16 06:12:15;;;;;;;1.13;1.03;;;;;;;3.91;64.56;93945.47;5076039;28;20638;-82
2023/01/16 06:14:42;;;;;;;1.70;1.50;;;;;;;3.91;65.02;93942.94;5075497;28;20197;-82
2023/01/16 06:17:08;;;;;;;1.30;1.20;;;;;;;3.73;66.03;93928.00;5075467;28;20200;-83
2023/01/16 06:19:36;;;;;;;1.87;1.17;;;;;;;3.71;65.45;93925.63;5073938;28;20209;-82
2023/01/16 06:22:02;;;;;;;1.60;1.30;;;;;;;3.77;65.26;93913.97;5075294;28;20213;-83
2023/01/16 06:24:29;;;;;;;1.27;0.90;;;;;;;3.72;65.59;93904.31;5075895;28;20200;-83
2023/01/16 06:26:55;;;;;;;5.20;1.07;;;;;;;3.68;65.69;93894.66;5076116;28;20821;-82
2023/01/16 06:29:21;;;;;;;1.77;1.10;;;;;;;3.66;65.75;93884.66;5075207;28;20224;-82
2023/01/16 06:31:48;;;;;;;1.23;1.10;;;;;;;3.66;65.71;93881.31;5075850;28;20205;-83
2023/01/16 06:34:14;;;;;;;1.10;1.00;;;;;;;3.60;65.99;93872.66;5075953;28;20212;-83
2023/01/16 06:36:44;;;;;;;1.43;1.13;;;;;;;3.57;65.82;93872.22;5068019;28;20224;-83
2023/01/16 06:39:11;;;;;;;1.80;1.40;;;;;;;3.57;66.04;93869.66;5056384;28;20225;-82
2023/01/16 06:41:37;;;;;;;1.20;1.10;;;;;;;3.47;66.28;93860.53;5055437;28;20596;-82
2023/01/16 06:44:04;;;;;;;1.40;1.10;;;;;;;3.34;66.43;93859.56;5054847;28;20198;-82
2023/01/16 06:46:31;;;;;;;1.10;1.00;;;;;;;3.30;66.75;93843.06;5054953;28;20905;-82
2023/01/16 06:48:57;;;;;;;1.20;1.10;;;;;;;3.39;66.45;93840.28;5056335;28;20229;-82
2023/01/16 06:51:24;;;;;;;1.10;1.00;;;;;;;3.25;67.10;93827.56;5060940;28;20189;-81
2023/01/16 06:53:52;;;;;;;1.30;0.93;;;;;;;3.18;67.28;93824.94;5066089;28;20365;-82
2023/01/16 06:56:19;;;;;;;3.00;1.00;;;;;;;3.19;66.99;93818.88;5074098;28;20215;-82
2023/01/16 06:58:45;;;;;;;1.13;0.90;;;;;;;3.13;67.78;93814.47;5075097;28;20227;-82
2023/01/16 07:01:11;;;;;;;1.50;1.07;;;;;;;3.12;67.47;93810.34;5074515;28;20714;-82
2023/01/16 07:03:38;;;;;;;2.70;1.20;;;;;;;3.19;67.65;93796.00;5069500;28;20213;-82
2023/01/16 07:06:05;;;;;;;1.00;0.90;;;;;;;3.23;67.53;93789.59;5055118;28;20742;-82
2023/01/16 07:08:33;;;;;;;1.20;1.10;;;;;;;3.20;67.61;93782.31;5054752;28;20287;-83
2023/01/16 07:11:01;;;;;;;1.90;1.10;;;;;;;3.23;67.62;93778.66;5066620;28;20223;-83
2023/01/16 07:13:28;;;;;;;2.50;1.03;;;;;;;3.32;67.44;93769.94;5075511;28;20204;-81
2023/01/16 07:24:20;;;;;;;1.07;0.90;;;;;;;3.41;67.08;93749.34;5074739;28;20289;-81
2023/01/16 07:26:52;;;;;;;1.87;1.13;;;;;;;3.33;67.44;93751.97;5075694;28;20223;-82
2023/01/16 07:29:18;;;;;;;1.43;1.10;;;;;;;3.29;67.67;93739.78;5074033;28;20268;-82
2023/01/16 07:31:45;;;;;;;2.17;1.30;;;;;;;3.34;67.68;93742.56;5075174;28;20201;-83
2023/01/16 07:34:11;;;;;;;1.40;1.30;;;;;;;3.41;67.88;93730.75;5074539;28;20192;-82
2023/01/16 07:36:38;;;;;;;3.97;1.40;;;;;;;3.39;68.12;93725.84;5075041;28;20574;-81
2023/01/16 07:39:04;;;;;;;3.90;1.10;;;;;;;3.50;67.92;93711.84;5074288;28;20224;-82
2023/01/16 07:41:31;;;;;;;3.40;1.07;;;;;;;3.57;67.27;93707.63;5075064;28;20622;-82
2023/01/16 07:43:59;;;;;;;2.57;1.10;;;;;;;3.57;67.27;93699.22;5074114;28;20196;-82
2023/01/16 07:46:25;;;;;;;1.13;1.00;;;;;;;3.60;67.23;93694.56;5074628;28;20199;-82
2023/01/16 07:48:53;;;;;;;1.60;1.10;;;;;;;3.68;67.15;93689.34;5075488;28;20789;-82
2023/01/16 07:51:19;;;;;;;0.90;0.90;;;;;;;3.86;66.59;93685.56;5074551;28;20259;-83
2023/01/16 07:53:46;;;;;;;2.57;0.93;;;;;;;3.94;66.49;93665.88;5074521;28;20204;-82
2023/01/16 07:56:12;;;;;;;1.10;1.00;;;;;;;3.98;65.94;93659.47;5072029;28;20608;-83
2023/01/16 07:58:41;;;;;;;1.63;1.03;;;;;;;3.86;66.29;93657.56;5073761;28;20648;-83
2023/01/16 08:01:09;;;;;;;2.73;0.93;;;;;;;3.83;66.34;93651.13;5073522;28;20224;-82
2023/01/16 08:03:36;;;;;;;2.43;1.07;;;;;;;4.00;66.34;93641.47;5073601;28;20205;-83
2023/01/16 08:06:03;;;;;;;1.90;1.03;;;;;;;4.10;65.62;93637.63;5074192;28;20200;-82
2023/01/16 08:08:30;;;;;;;1.50;1.03;;;;;;;4.26;65.10;93634.00;5073623;28;20223;-83
2023/01/16 08:10:57;;;;;;;0.90;0.90;;;;;;;4.37;64.91;93622.53;5073195;28;20291;-83
2023/01/16 08:13:24;;;;;;;2.10;1.63;;;;;;;4.50;64.29;93614.94;5073724;28;20703;-83
2023/01/16 08:15:51;;;;;;;3.20;1.60;;;;;;;4.58;63.84;93606.38;5073662;28;20197;-83
2023/01/16 08:18:19;;;;;;;2.73;1.13;;;;;;;4.76;63.71;93612.53;5073379;28;20217;-83
2023/01/16 08:20:46;;;;;;;1.27;1.10;;;;;;;4.93;62.91;93605.34;5074465;28;20208;-83
2023/01/16 08:23:13;;;;;;;1.07;1.07;;;;;;;5.08;61.39;93612.84;5073702;28;20216;-82
2023/01/16 08:25:39;;;;;;;1.20;1.10;;;;;;;5.01;61.27;93599.28;5073829;28;20205;-83
2023/01/16 08:28:06;;;;;;;1.10;1.00;;;;;;;5.20;60.59;93591.69;5072682;28;20224;-83
2023/01/16 08:30:32;;;;;;;1.23;1.00;;;;;;;5.51;60.66;93592.94;5073281;28;20212;-83
2023/01/16 08:32:59;;;;;;;1.83;1.20;;;;;;;5.48;59.68;93586.47;5073057;28;20219;-83
2023/01/16 08:35:28;;;;;;;2.73;1.10;;;;;;;5.46;59.75;93577.44;5073952;28;20200;-82
2023/01/16 08:37:54;;;;;;;1.43;1.20;;;;;;;5.55;59.88;93569.41;5072858;28;20220;-84
2023/01/16 08:40:20;;;;;;;1.00;1.00;;;;;;;5.44;59.21;93564.84;5076300;28;20238;-83
2023/01/16 08:51:23;;;;;;;1.10;1.00;;;;;;;5.67;58.68;93525.41;5077308;28;20204;-84
2023/01/16 08:53:49;;;;;;;1.40;1.20;;;;;;;5.59;59.38;93517.94;5078186;28;20230;-83
2023/01/16 08:56:16;;;;;;;1.30;1.20;;;;;;;5.59;59.63;93497.53;5076594;28;20622;-84
2023/01/16 08:58:42;;;;;;;1.60;1.50;;;;;;;5.79;59.69;93490.63;5076456;28;20235;-83
2023/01/16 09:01:09;;;;;;;2.17;1.50;;;;;;;5.76;59.39;93491.84;5077543;28;20209;-83
2023/01/16 09:03:35;;;;;;;2.37;1.30;;;;;;;5.85;58.43;93477.09;5077098;28;20208;-83
2023/01/16 09:06:02;;;;;;;1.40;1.30;;;;;;;5.85;58.80;93482.19;5076092;28;20273;-83
2023/01/16 09:08:30;;;;;;;1.93;1.40;;;;;;;5.87;58.60;93470.78;5076145;28;20224;-83
2023/01/16 09:13:49;;;;;;;2.70;1.47;;;;;;;5.99;57.90;93460.78;5077335;28;20200;-83
2023/01/16 09:16:16;;;;;;;1.63;1.50;;;;;;;6.04;58.06;93457.63;5078388;28;20223;-83
2023/01/16 09:18:43;;;;;;;1.40;1.30;;;;;;;5.84;57.66;93455.88;5078222;28;20219;-83
2023/01/16 09:21:09;;;;;;;2.10;1.73;;;;;;;5.78;58.81;93445.66;5079047;28;20203;-83
2023/01/16 09:23:37;;;;;;;1.43;1.33;;;;;;;5.86;58.29;93437.81;5077589;28;20200;-83
2023/01/16 09:26:04;;;;;;;1.93;1.83;;;;;;;6.04;58.75;93434.63;5076569;28;20295;-83
2023/01/16 09:28:31;;;;;;;3.30;2.00;;;;;;;6.13;58.65;93424.00;5076735;28;20220;-83
2023/01/16 09:30:57;;;;;;;2.60;1.93;;;;;;;6.12;57.76;93406.31;5076804;28;20208;-84
2023/01/16 09:33:24;;;;;;;1.67;1.57;;;;;;;6.13;58.18;93420.66;5075459;28;20204;-83
2023/01/16 09:35:50;;;;;;;3.43;1.70;;;;;;;6.26;58.11;93399.38;5075928;28;20200;-83
2023/01/16 09:38:17;;;;;;;1.60;1.50;;;;;;;6.35;57.86;93400.72;5075980;28;20315;-83
2023/01/16 09:40:49;;;;;;;2.27;1.60;;;;;;;6.58;57.23;93391.53;5075560;28;20197;-84
2023/01/16 09:43:35;;;;;;;1.67;1.50;;;;;;;6.42;57.23;93397.13;5075843;28;20229;-84
2023/01/16 09:46:05;;;;;;;1.70;1.60;;;;;;;6.54;57.34;93387.06;5076918;28;20209;-83
2023/01/16 09:48:33;;;;;;;2.10;1.90;;;;;;;6.53;57.18;93380.38;5076995;28;20217;-83
2023/01/16 09:51:05;;;;;;;3.00;1.80;;;;;;;6.71;56.68;93387.34;5076314;28;20192;-84
2023/01/16 09:59:27;;;;;;;2.17;1.70;;;;;;;6.03;58.37;93341.91;5077133;28;20227;-83
2023/01/16 10:02:00;;;;;;;1.57;1.47;;;;;;;5.70;58.36;93329.25;5076185;28;20320;-84
2023/01/16 10:04:29;;;;;;;1.60;1.37;;;;;;;5.62;59.10;93323.56;5076609;28;20434;-83
2023/01/16 10:07:27;;;;;;;1.50;1.40;;;;;;;5.47;58.79;93314.41;5076176;28;20224;-83
2023/01/16 10:10:03;;;;;;;1.40;1.30;;;;;;;5.61;58.95;93301.59;5076720;28;20192;-83
2023/01/16 10:12:35;;;;;;;2.73;1.60;;;;;;;5.80;58.92;93290.50;5074051;28;20205;-83
2023/01/16 10:15:15;;;;;;;2.20;1.60;;;;;;;6.07;57.94;93283.53;5075046;28;20215;-83
2023/01/16 10:17:55;;;;;;;1.50;1.40;;;;;;;6.08;58.00;93275.69;5075943;28;20216;-83
2023/01/16 10:20:41;;;;;;;2.60;1.60;;;;;;;6.16;57.31;93249.09;5077159;28;20196;-83
2023/01/16 10:23:19;;;;;;;1.63;1.50;;;;;;;6.26;57.12;93243.53;5077045;28;20308;-83
2023/01/16 10:25:52;;;;;;;2.87;1.40;;;;;;;6.43;56.38;93245.38;5078720;28;20209;-83
2023/01/16 10:28:30;;;;;;;5.60;5.00;;;;;;;6.84;55.99;93237.16;5076984;28;20224;-83
2023/01/16 10:31:05;;;;;;;1.80;1.70;;;;;;;6.69;55.04;93239.25;5076526;28;20262;-83
2023/01/16 10:33:35;;;;;;;1.57;1.23;;;;;;;6.62;55.07;93238.53;5075197;28;20204;-83
2023/01/16 10:36:04;;;;;;;6.53;1.60;;;;;;;6.76;54.67;93236.63;5075601;28;20204;-83
2023/01/16 10:38:43;;;;;;;1.90;1.23;;;;;;;6.78;54.39;93219.31;5075281;28;20923;-83
2023/01/16 10:49:25;;;;;;;1.77;1.37;;;;;;;6.85;54.76;93212.38;5075170;28;20224;-82
2023/01/16 10:49:34;;;;;;;1.53;1.17;;;;;;;7.03;53.75;93188.56;5087164;28;20238;-83
2023/01/16 10:52:05;;;;;;;3.93;3.37;;;;;;;7.03;53.96;93189.34;5087455;28;20193;-83
2023/01/16 10:54:32;;;;;;;1.43;1.30;;;;;;;6.84;53.93;93183.44;5087385;28;20258;-82
2023/01/16 10:57:03;;;;;;;2.83;1.20;;;;;;;6.72;54.80;93172.38;5086639;28;20204;-83
2023/01/16 10:59:32;;;;;;;1.30;1.20;;;;;;;6.64;55.13;93171.84;5086971;28;20227;-82
2023/01/16 11:02:04;;;;;;;2.33;1.30;;;;;;;6.78;55.55;93152.81;5086280;28;20239;-82
2023/01/16 11:04:35;;;;;;;1.23;1.13;;;;;;;6.99;54.59;93147.28;5087944;28;20207;-82
2023/01/16 11:07:17;;;;;;;2.13;1.20;;;;;;;7.14;54.31;93137.47;5086037;28;20201;-82
2023/01/16 11:09:45;;;;;;;1.87;1.20;;;;;;;7.35;54.30;93136.22;5086688;28;20201;-82
2023/01/16 11:20:44;;;;;;;1.30;1.20;;;;;;;7.87;50.61;93106.53;5077584;28;20199;-83
2023/01/16 11:23:17;;;;;;;1.30;1.10;;;;;;;7.89;50.27;93109.63;5077440;28;20317;-83
2023/01/16 11:25:45;;;;;;;1.40;1.30;;;;;;;7.77;50.72;93098.59;5077288;28;20230;-83
2023/01/16 11:28:17;;;;;;;1.70;0.97;;;;;;;7.83;50.23;93082.38;5074707;28;20248;-83
2023/01/16 11:30:48;;;;;;;1.50;1.33;;;;;;;7.84;50.38;93073.69;5077296;28;20208;-83
2023/01/16 11:33:17;;;;;;;1.37;1.20;;;;;;;7.92;50.86;93070.78;5076213;28;20204;-83
2023/01/16 11:35:52;;;;;;;1.07;1.00;;;;;;;8.01;50.64;93057.66;5077548;28;20270;-83
2023/01/16 11:38:18;;;;;;;1.20;1.10;;;;;;;8.06;50.45;93055.22;5073664;28;20219;-83
2023/01/16 11:40:47;;;;;;;1.30;1.20;;;;;;;8.07;50.41;93047.31;5056241;28;20201;-83
2023/01/16 11:46:11;;;;;;;2.33;1.80;;;;;;;8.00;49.76;93038.16;5056950;28;20232;-82
2023/01/16 11:48:40;;;;;;;2.43;1.33;;;;;;;8.23;50.85;93025.34;5055628;28;20710;-83
2023/01/16 11:51:11;;;;;;;1.63;1.40;;;;;;;8.27;49.96;93008.50;5066044;28;20207;-83
2023/01/16 11:53:37;;;;;;;2.90;1.13;;;;;;;8.03;50.58;93002.63;5077723;28;20581;-83
2023/01/16 11:56:32;;;;;;;1.33;1.10;;;;;;;7.75;50.50;93002.50;5076267;28;20197;-83
2023/01/16 11:59:11;;;;;;;1.03;1.00;;;;;;;7.70;51.35;93004.97;5068698;28;20247;-82
2023/01/16 12:04:39;;;;;;;1.10;1.00;;;;;;;7.82;51.26;92991.16;5077948;28;20207;-83
2023/01/16 12:07:13;;;;;;;3.40;1.10;;;;;;;7.91;50.40;92989.03;5077126;28;20730;-83
2023/01/16 12:09:49;;;;;;;3.63;1.30;;;;;;;8.05;50.42;92990.38;5076591;28;20230;-83
2023/01/16 12:15:23;;;;;;;2.03;1.00;;;;;;;8.20;50.97;92980.44;5060587;28;20626;-83
2023/01/16 12:18:03;;;;;;;3.20;1.07;;;;;;;7.88;50.96;92980.03;5061768;28;20212;-82
2023/01/16 12:20:41;;;;;;;1.27;1.17;;;;;;;7.82;51.32;92973.25;5079739;28;20200;-83
2023/01/16 12:23:28;;;;;;;1.30;1.20;;;;;;;7.76;51.96;92970.78;5081206;28;20216;-82
2023/01/16 12:26:06;;;;;;;2.20;1.40;;;;;;;7.72;51.27;92964.53;5082081;28;20222;-83
2023/01/16 12:28:41;;;;;;;1.20;1.10;;;;;;;7.68;51.01;92955.78;5081968;28;20232;-83
2023/01/16 12:31:31;;;;;;;3.30;1.80;;;;;;;7.73;51.51;92953.28;5080666;28;20204;-83
2023/01/16 12:34:15;;;;;;;1.37;0.97;;;;;;;7.64;51.38;92963.09;5081598;28;20231;-83
2023/01/16 12:36:56;;;;;;;1.20;1.10;;;;;;;7.58;51.52;92962.22;5081697;28;20258;-83
2023/01/16 12:39:30;;;;;;;1.30;1.10;;;;;;;7.55;51.79;92947.28;5081319;28;20224;-82
2023/01/16 12:45:04;;;;;;;2.67;1.20;;;;;;;7.41;53.00;92942.63;5080551;28;20303;-83
2023/01/16 12:47:41;;;;;;;0.90;0.90;;;;;;;7.33;52.91;92938.59;5081023;28;20615;-82
2023/01/16 12:50:28;;;;;;;1.40;1.30;;;;;;;7.24;53.54;92950.94;5079671;28;20597;-83
2023/01/16 12:53:12;;;;;;;1.10;1.00;;;;;;;7.27;53.70;92942.84;5069331;28;20680;-82